createdAt,value
2018-06-24T00:00:02.819Z,20.27
2018-06-24T00:02:30.890Z,16.87
2018-06-24T00:04:58.954Z,21.83
2018-06-24T00:07:27.026Z,22.23
2018-06-24T00:09:55.110Z,15.93
2018-06-24T00:12:23.280Z,17.30
2018-06-24T00:14:51.398Z,13.10
2018-06-24T00:17:19.486Z,16.87
2018-06-24T00:19:47.579Z,19.40
2018-06-24T00:22:15.670Z,16.60
2018-06-24T00:24:43.755Z,22.30
2018-06-24T00:27:11.688Z,18.60
2018-06-24T00:29:39.763Z,17.07
2018-06-24T00:32:07.829Z,15.27
2018-06-24T00:34:36.022Z,19.80
2018-06-24T00:37:04.114Z,20.43
2018-06-24T00:39:32.218Z,22.77
2018-06-24T00:42:00.287Z,17.37
2018-06-24T00:44:28.414Z,18.90
2018-06-24T00:46:56.496Z,20.43
2018-06-24T00:49:24.558Z,21.47
2018-06-24T00:51:52.647Z,24.90
2018-06-24T00:54:20.770Z,18.40
2018-06-24T00:56:48.819Z,19.50
2018-06-24T00:59:28.504Z,20.43
2018-06-24T01:01:56.575Z,15.57
2018-06-24T01:04:24.663Z,15.87
2018-06-24T01:06:52.536Z,18.83
2018-06-24T01:09:20.598Z,18.37
2018-06-24T01:11:48.678Z,23.50
2018-06-24T01:14:16.743Z,14.93
2018-06-24T01:16:44.823Z,18.07
2018-06-24T01:19:12.914Z,24.43
2018-06-24T01:21:40.982Z,18.80
2018-06-24T01:24:09.058Z,17.80
2018-06-24T01:26:37.130Z,20.50
2018-06-24T01:29:05.215Z,19.83
2018-06-24T01:31:33.299Z,23.60
2018-06-24T01:34:01.379Z,22.70
2018-06-24T01:36:29.434Z,20.53
2018-06-24T01:38:57.511Z,19.33
2018-06-24T01:41:25.574Z,21.33
2018-06-24T01:43:53.656Z,20.03
2018-06-24T01:46:21.747Z,26.27
2018-06-24T01:48:49.891Z,16.43
2018-06-24T01:51:17.970Z,20.87
2018-06-24T01:53:46.048Z,19.65
2018-06-24T01:56:14.130Z,17.63
2018-06-24T01:58:42.224Z,26.60
2018-06-24T02:01:10.309Z,15.90
2018-06-24T02:03:38.390Z,19.13
2018-06-24T02:06:06.744Z,15.63
2018-06-24T02:08:34.970Z,17.87
2018-06-24T02:11:03.051Z,13.37
2018-06-24T02:13:31.126Z,19.33
2018-06-24T02:15:59.200Z,24.17
2018-06-24T02:18:27.271Z,20.70
2018-06-24T02:20:55.380Z,20.53
2018-06-24T02:23:23.510Z,14.90
2018-06-24T02:25:51.566Z,17.73
2018-06-24T02:28:19.513Z,18.90
2018-06-24T02:30:47.582Z,16.37
2018-06-24T02:33:15.709Z,18.17
2018-06-24T02:35:43.782Z,25.03
2018-06-24T02:38:11.864Z,18.70
2018-06-24T02:40:39.949Z,20.97
2018-06-24T02:43:08.094Z,16.03
2018-06-24T02:45:36.218Z,19.77
2018-06-24T02:48:04.255Z,17.33
2018-06-24T02:50:32.347Z,19.77
2018-06-24T02:53:00.434Z,23.93
2018-06-24T02:55:28.504Z,24.87
2018-06-24T02:57:56.579Z,17.73
2018-06-24T03:00:24.658Z,18.48
2018-06-24T03:02:52.754Z,15.73
2018-06-24T03:05:20.854Z,18.03
2018-06-24T03:07:48.934Z,18.40
2018-06-24T03:10:17.027Z,16.90
2018-06-24T03:12:45.103Z,23.97
2018-06-24T03:15:13.179Z,21.73
2018-06-24T03:17:41.255Z,21.20
2018-06-24T03:20:09.363Z,18.57
2018-06-24T03:22:37.232Z,19.07
2018-06-24T03:25:05.302Z,23.63
2018-06-24T03:27:33.374Z,19.00
2018-06-24T03:30:01.435Z,20.33
2018-06-24T03:32:29.507Z,25.17
2018-06-24T03:34:57.654Z,22.80
2018-06-24T03:37:25.754Z,22.20
2018-06-24T03:39:53.826Z,21.97
2018-06-24T03:42:21.744Z,22.53
2018-06-24T03:44:49.841Z,18.50
2018-06-24T03:47:17.945Z,19.83
2018-06-24T03:49:46.034Z,16.03
2018-06-24T03:52:14.110Z,20.70
2018-06-24T03:54:42.182Z,16.97
2018-06-24T03:57:10.292Z,15.63
2018-06-24T03:59:38.396Z,17.47
2018-06-24T04:02:06.478Z,17.65
2018-06-24T04:04:34.550Z,16.23
2018-06-24T04:07:02.654Z,17.13
2018-06-24T04:09:30.710Z,16.60
2018-06-24T04:11:58.806Z,20.90
2018-06-24T04:14:26.870Z,17.63
2018-06-24T04:16:54.973Z,14.80
2018-06-24T04:19:23.046Z,12.50
2018-06-24T04:21:51.140Z,17.07
2018-06-24T04:24:19.073Z,13.73
2018-06-24T04:26:47.162Z,12.10
2018-06-24T04:29:15.234Z,11.43
2018-06-24T04:31:43.199Z,13.03
2018-06-24T04:34:11.268Z,18.47
2018-06-24T04:36:39.331Z,12.93
2018-06-24T04:39:08.637Z,13.80
2018-06-24T04:41:36.718Z,14.80
2018-06-24T04:44:04.816Z,12.30
2018-06-24T04:46:32.898Z,18.77
2018-06-24T04:49:00.983Z,14.07
2018-06-24T04:51:29.401Z,15.97
2018-06-24T04:53:57.882Z,11.43
2018-06-24T04:56:26.160Z,13.93
2018-06-24T04:58:54.445Z,13.50
2018-06-24T05:01:22.526Z,9.43
2018-06-24T05:03:50.602Z,12.33
2018-06-24T05:06:18.678Z,11.33
2018-06-24T05:08:46.770Z,12.63
2018-06-24T05:11:14.836Z,9.87
2018-06-24T05:13:42.903Z,11.80
2018-06-24T05:16:10.970Z,6.87
2018-06-24T05:18:39.043Z,11.90
2018-06-24T05:21:07.110Z,12.90
2018-06-24T05:23:35.190Z,11.03
2018-06-24T05:26:03.471Z,14.50
2018-06-24T05:28:31.570Z,8.00
2018-06-24T05:30:59.814Z,12.83
2018-06-24T05:33:27.878Z,14.80
2018-06-24T05:35:55.954Z,8.20
2018-06-24T05:38:24.034Z,9.63
2018-06-24T05:40:52.150Z,11.30
2018-06-24T05:43:20.267Z,11.90
2018-06-24T05:45:48.343Z,12.57
2018-06-24T05:48:16.431Z,19.07
2018-06-24T05:50:44.566Z,10.30
2018-06-24T05:53:12.658Z,16.70
2018-06-24T05:55:40.729Z,9.13
2018-06-24T05:58:08.885Z,10.43
2018-06-24T06:00:36.935Z,10.80
2018-06-24T06:03:05.055Z,9.40
2018-06-24T06:05:33.128Z,10.30
2018-06-24T06:08:01.218Z,7.90
2018-06-24T06:10:29.351Z,12.73
2018-06-24T06:12:57.370Z,12.77
2018-06-24T06:15:25.443Z,7.57
2018-06-24T06:17:53.512Z,8.33
2018-06-24T06:20:21.586Z,8.87
2018-06-24T06:22:49.701Z,10.63
2018-06-24T06:25:17.795Z,9.47
2018-06-24T06:27:45.879Z,11.13
2018-06-24T06:30:14.018Z,12.77
2018-06-24T06:32:42.078Z,13.27
2018-06-24T06:35:10.165Z,10.87
2018-06-24T06:37:38.258Z,10.07
2018-06-24T06:40:06.343Z,11.97
2018-06-24T06:42:34.426Z,9.57
2018-06-24T06:45:02.699Z,8.37
2018-06-24T06:47:30.637Z,5.17
2018-06-24T06:49:58.715Z,8.37
2018-06-24T06:52:26.792Z,8.43
2018-06-24T06:54:54.858Z,4.53
2018-06-24T06:57:22.931Z,4.53
2018-06-24T06:59:51.090Z,8.13
2018-06-24T07:02:19.171Z,6.07
2018-06-24T07:04:47.263Z,5.30
2018-06-24T07:07:15.402Z,8.40
2018-06-24T07:09:43.458Z,4.70
2018-06-24T07:12:11.546Z,5.10
2018-06-24T07:14:39.646Z,5.87
2018-06-24T07:17:07.840Z,7.60
2018-06-24T07:19:35.906Z,7.73
2018-06-24T07:22:04.059Z,9.07
2018-06-24T07:24:32.115Z,8.83
2018-06-24T07:27:00.216Z,5.17
2018-06-24T07:29:28.291Z,4.63
2018-06-24T07:31:56.382Z,10.20
2018-06-24T07:34:24.507Z,5.60
2018-06-24T07:36:52.598Z,3.20
2018-06-24T07:39:20.799Z,4.63
2018-06-24T07:41:48.720Z,6.85
2018-06-24T07:44:16.803Z,10.57
2018-06-24T07:46:44.898Z,4.17
2018-06-24T07:49:12.966Z,6.70
2018-06-24T07:51:41.061Z,6.83
2018-06-24T07:54:09.142Z,6.33
2018-06-24T07:56:37.211Z,5.80
2018-06-24T07:59:05.353Z,4.60
2018-06-24T08:01:33.558Z,5.60
2018-06-24T08:04:01.651Z,10.07
2018-06-24T08:06:29.744Z,5.37
2018-06-24T08:08:57.834Z,3.23
2018-06-24T08:11:26.087Z,4.27
2018-06-24T08:13:54.239Z,4.87
2018-06-24T08:16:22.340Z,3.10
2018-06-24T08:18:50.414Z,4.20
2018-06-24T08:21:18.464Z,3.27
2018-06-24T08:23:46.537Z,3.37
2018-06-24T08:26:14.682Z,5.87
2018-06-24T08:28:42.810Z,6.27
2018-06-24T08:31:10.996Z,5.30
2018-06-24T08:33:39.066Z,7.00
2018-06-24T08:36:07.144Z,5.97
2018-06-24T08:38:35.207Z,5.03
2018-06-24T08:41:03.290Z,10.93
2018-06-24T08:43:31.370Z,4.57
2018-06-24T08:45:59.489Z,6.27
2018-06-24T08:48:27.584Z,7.00
2018-06-24T08:50:55.644Z,4.67
2018-06-24T08:53:23.742Z,8.23
2018-06-24T08:55:51.799Z,4.60
2018-06-24T08:58:19.857Z,4.13
2018-06-24T09:00:47.953Z,6.43
2018-06-24T09:03:16.037Z,5.90
2018-06-24T09:05:44.120Z,5.33
2018-06-24T09:08:12.190Z,6.63
2018-06-24T09:10:40.263Z,6.20
2018-06-24T09:13:08.342Z,3.83
2018-06-24T09:15:36.458Z,5.53
2018-06-24T09:18:04.481Z,5.20
2018-06-24T09:20:32.540Z,5.87
2018-06-24T09:23:00.628Z,2.83
2018-06-24T09:25:28.716Z,5.03
2018-06-24T09:27:56.643Z,4.37
2018-06-24T09:30:24.740Z,6.50
2018-06-24T09:32:52.814Z,5.73
2018-06-24T09:35:20.882Z,3.47
2018-06-24T09:37:48.958Z,5.83
2018-06-24T09:40:17.078Z,7.00
2018-06-24T09:42:45.171Z,12.37
2018-06-24T09:45:13.278Z,8.23
2018-06-24T09:47:41.729Z,5.13
2018-06-24T09:50:09.903Z,3.47
2018-06-24T09:52:38.051Z,5.27
2018-06-24T09:55:06.173Z,6.08
2018-06-24T09:57:34.327Z,5.85
2018-06-24T10:00:02.439Z,4.17
2018-06-24T10:02:30.541Z,5.10
2018-06-24T10:04:58.925Z,7.55
2018-06-24T10:07:27.022Z,4.97
2018-06-24T10:09:55.102Z,5.72
2018-06-24T10:12:23.303Z,6.22
2018-06-24T10:14:51.463Z,4.78
2018-06-24T10:17:19.558Z,3.80
2018-06-24T10:19:47.634Z,5.97
2018-06-24T10:22:15.479Z,5.17
2018-06-24T10:24:43.365Z,4.62
2018-06-24T10:27:11.462Z,6.85
2018-06-24T10:29:39.542Z,4.90
2018-06-24T10:32:07.654Z,5.53
2018-06-24T10:34:35.783Z,5.10
2018-06-24T10:37:03.918Z,4.10
2018-06-24T10:39:31.852Z,4.20
2018-06-24T10:41:59.943Z,7.75
2018-06-24T10:44:28.019Z,5.65
2018-06-24T10:46:56.089Z,4.25
2018-06-24T10:49:24.243Z,3.33
2018-06-24T10:51:52.317Z,4.95
2018-06-24T10:54:20.438Z,5.70
2018-06-24T10:56:48.569Z,2.70
2018-06-24T10:59:16.638Z,3.52
2018-06-24T11:01:44.699Z,5.42
2018-06-24T11:04:12.822Z,5.67
2018-06-24T11:06:40.764Z,3.08
2018-06-24T11:09:09.980Z,5.42
2018-06-24T11:11:38.116Z,2.80
2018-06-24T11:14:06.490Z,4.20
2018-06-24T11:16:34.930Z,5.25
2018-06-24T11:19:02.963Z,4.53
2018-06-24T11:21:31.345Z,3.20
2018-06-24T11:24:00.204Z,4.90
2018-06-24T11:26:28.498Z,5.75
2018-06-24T11:28:56.594Z,3.70
2018-06-24T11:31:24.737Z,4.17
2018-06-24T11:33:52.890Z,2.75
2018-06-24T11:36:20.998Z,1.42
2018-06-24T11:38:49.143Z,2.90
2018-06-24T11:41:17.251Z,4.83
2018-06-24T11:43:45.289Z,5.17
2018-06-24T11:46:13.569Z,4.95
2018-06-24T11:48:41.650Z,3.37
2018-06-24T11:51:10.334Z,5.92
2018-06-24T11:53:38.427Z,4.03
2018-06-24T11:56:06.515Z,6.45
2018-06-24T11:58:34.623Z,1.75
2018-06-24T12:01:03.043Z,4.83
2018-06-24T12:03:31.132Z,2.58
2018-06-24T12:05:59.246Z,3.10
2018-06-24T12:08:27.829Z,4.25
2018-06-24T12:10:56.028Z,2.80
2018-06-24T12:13:24.071Z,5.83
2018-06-24T12:15:52.147Z,3.27
2018-06-24T12:18:20.323Z,3.75
2018-06-24T12:20:48.288Z,2.08
2018-06-24T12:23:16.367Z,4.80
2018-06-24T12:25:44.509Z,2.92
2018-06-24T12:28:12.570Z,2.37
2018-06-24T12:30:40.567Z,4.53
2018-06-24T12:33:08.653Z,4.58
2018-06-24T12:35:36.771Z,5.53
2018-06-24T12:38:05.633Z,2.10
2018-06-24T12:40:35.304Z,4.28
2018-06-24T12:43:04.399Z,4.62
2018-06-24T12:45:33.425Z,4.67
2018-06-24T12:48:01.739Z,3.67
2018-06-24T12:50:29.723Z,4.05
2018-06-24T12:52:58.859Z,4.25
2018-06-24T12:55:27.070Z,6.75
2018-06-24T12:57:55.583Z,5.12
2018-06-24T13:00:24.595Z,5.70
2018-06-24T13:02:52.011Z,3.72
2018-06-24T13:05:20.398Z,5.83
2018-06-24T13:07:48.614Z,10.60
2018-06-24T13:10:16.697Z,2.98
2018-06-24T13:12:44.904Z,7.22
2018-06-24T13:15:12.950Z,5.30
2018-06-24T13:17:41.035Z,2.92
2018-06-24T13:20:09.118Z,6.60
2018-06-24T13:22:37.206Z,6.53
2018-06-24T13:25:05.282Z,3.95
2018-06-24T13:27:33.378Z,4.62
2018-06-24T13:30:01.466Z,5.25
2018-06-24T13:32:29.612Z,3.10
2018-06-24T13:34:57.688Z,4.00
2018-06-24T13:37:25.786Z,5.20
2018-06-24T13:39:53.719Z,6.00
2018-06-24T13:42:22.061Z,6.25
2018-06-24T13:44:50.378Z,7.05
2018-06-24T13:47:19.269Z,4.05
2018-06-24T13:49:47.374Z,4.58
2018-06-24T13:52:15.242Z,2.75
2018-06-24T13:54:43.705Z,4.55
2018-06-24T13:57:12.019Z,6.47
2018-06-24T13:59:40.208Z,3.77
2018-06-24T14:02:08.298Z,4.25
2018-06-24T14:04:36.516Z,3.75
2018-06-24T14:07:04.730Z,4.08
2018-06-24T14:09:32.802Z,5.53
2018-06-24T14:12:01.376Z,4.00
2018-06-24T14:14:29.469Z,3.72
2018-06-24T14:16:57.678Z,2.98
2018-06-24T14:19:26.595Z,4.95
2018-06-24T14:21:54.776Z,5.17
2018-06-24T14:24:23.217Z,4.12
2018-06-24T14:26:51.371Z,5.20
2018-06-24T14:29:20.083Z,2.98
2018-06-24T14:31:48.795Z,2.80
2018-06-24T14:34:17.490Z,2.35
2018-06-24T14:36:45.757Z,3.95
2018-06-24T14:39:13.827Z,2.95
2018-06-24T14:41:42.083Z,4.50
2018-06-24T14:44:10.459Z,4.45
2018-06-24T14:46:38.594Z,4.03
2018-06-24T14:49:07.245Z,3.25
2018-06-24T14:51:35.622Z,4.97
2018-06-24T14:54:04.299Z,4.15
2018-06-24T14:56:32.614Z,6.17
2018-06-24T14:59:01.184Z,4.50
2018-06-24T15:01:29.706Z,5.10
2018-06-24T15:03:58.127Z,4.30
2018-06-24T15:06:26.156Z,5.10
2018-06-24T15:08:54.326Z,3.70
2018-06-24T15:11:22.592Z,4.10
2018-06-24T15:13:50.645Z,5.65
2018-06-24T15:16:18.851Z,6.12
2018-06-24T15:18:46.975Z,4.30
2018-06-24T15:21:15.083Z,10.32
2018-06-24T15:23:43.175Z,4.20
2018-06-24T15:26:11.291Z,4.15
2018-06-24T15:28:39.439Z,5.67
2018-06-24T15:31:07.623Z,4.62
2018-06-24T15:33:35.801Z,4.55
2018-06-24T15:36:03.991Z,5.92
2018-06-24T15:38:32.171Z,9.90
2018-06-24T15:41:00.239Z,7.35
2018-06-24T15:43:28.932Z,7.65
2018-06-24T15:45:57.197Z,3.77
2018-06-24T15:48:25.561Z,6.28
2018-06-24T15:50:53.658Z,3.72
2018-06-24T15:53:21.747Z,6.47
2018-06-24T15:55:49.794Z,4.03
2018-06-24T15:58:17.940Z,4.62
2018-06-24T16:00:46.234Z,7.20
2018-06-24T16:03:14.335Z,6.12
2018-06-24T16:05:42.489Z,4.57
2018-06-24T16:08:10.719Z,7.20
2018-06-24T16:10:39.024Z,3.65
2018-06-24T16:13:07.307Z,7.43
2018-06-24T16:15:36.932Z,3.87
2018-06-24T16:18:05.039Z,8.30
2018-06-24T16:20:33.155Z,6.33
2018-06-24T16:23:01.258Z,7.77
2018-06-24T16:25:29.354Z,6.03
2018-06-24T16:27:58.407Z,5.53
2018-06-24T16:30:27.171Z,5.27
2018-06-24T16:32:55.215Z,7.07
2018-06-24T16:35:23.282Z,8.93
2018-06-24T16:37:51.397Z,8.50
2018-06-24T16:40:19.459Z,3.30
2018-06-24T16:42:47.450Z,3.73
2018-06-24T16:45:15.535Z,9.77
2018-06-24T16:47:43.646Z,4.77
2018-06-24T16:50:11.738Z,8.03
2018-06-24T16:52:39.836Z,7.33
2018-06-24T16:55:07.935Z,3.50
2018-06-24T16:57:36.044Z,6.13
2018-06-24T17:00:04.609Z,5.70
2018-06-24T17:02:32.670Z,7.30
2018-06-24T17:05:00.777Z,5.63
2018-06-24T17:07:28.883Z,8.40
2018-06-24T17:09:57.038Z,6.90
2018-06-24T17:12:25.157Z,8.93
2018-06-24T17:14:53.268Z,6.20
2018-06-24T17:17:21.385Z,6.93
2018-06-24T17:19:49.522Z,5.07
2018-06-24T17:22:17.673Z,7.43
2018-06-24T17:24:45.771Z,6.20
2018-06-24T17:27:13.880Z,6.80
2018-06-24T17:29:42.043Z,8.03
2018-06-24T17:32:10.134Z,9.53
2018-06-24T17:34:38.232Z,6.62
2018-06-24T17:37:06.332Z,6.73
2018-06-24T17:39:34.428Z,3.47
2018-06-24T17:42:02.555Z,6.43
2018-06-24T17:44:30.726Z,13.63
2018-06-24T17:46:58.802Z,9.57
2018-06-24T17:49:27.003Z,6.83
2018-06-24T17:51:55.086Z,6.20
2018-06-24T17:54:23.226Z,8.17
2018-06-24T17:56:51.286Z,7.87
2018-06-24T17:59:19.350Z,4.97
2018-06-24T18:01:47.494Z,9.20
2018-06-24T18:04:15.579Z,7.90
2018-06-24T18:06:43.710Z,3.43
2018-06-24T18:09:12.388Z,6.93
2018-06-24T18:11:40.763Z,4.20
2018-06-24T18:14:09.220Z,8.93
2018-06-24T18:16:37.307Z,7.63
2018-06-24T18:19:05.612Z,9.23
2018-06-24T18:21:33.712Z,8.77
2018-06-24T18:24:02.611Z,9.87
2018-06-24T18:26:30.700Z,5.93
2018-06-24T18:28:58.770Z,7.77
2018-06-24T18:31:26.877Z,7.60
2018-06-24T18:33:54.975Z,6.78
2018-06-24T18:36:23.059Z,6.33
2018-06-24T18:38:51.134Z,7.03
2018-06-24T18:41:19.248Z,7.77
2018-06-24T18:43:47.354Z,4.87
2018-06-24T18:46:15.552Z,6.40
2018-06-24T18:48:43.664Z,5.93
2018-06-24T18:51:11.718Z,8.27
2018-06-24T18:53:39.782Z,5.33
2018-06-24T18:56:07.867Z,8.03
2018-06-24T18:58:35.939Z,9.30
2018-06-24T19:01:04.148Z,7.87
2018-06-24T19:03:32.220Z,9.63
2018-06-24T19:06:00.343Z,7.93
2018-06-24T19:08:28.471Z,9.67
2018-06-24T19:10:56.406Z,9.13
2018-06-24T19:13:24.487Z,6.53
2018-06-24T19:15:52.557Z,7.47
2018-06-24T19:18:20.635Z,10.03
2018-06-24T19:20:48.715Z,8.27
2018-06-24T19:23:16.775Z,9.50
2018-06-24T19:25:44.916Z,11.00
2018-06-24T19:28:13.514Z,10.17
2018-06-24T19:30:43.025Z,9.73
2018-06-24T19:33:11.201Z,8.47
2018-06-24T19:35:39.281Z,9.43
2018-06-24T19:38:07.371Z,11.37
2018-06-24T19:40:35.521Z,8.60
2018-06-24T19:43:03.702Z,11.33
2018-06-24T19:45:31.809Z,14.03
2018-06-24T19:48:00.698Z,13.27
2018-06-24T19:50:28.837Z,9.53
2018-06-24T19:52:56.919Z,11.47
2018-06-24T19:55:25.018Z,13.30
2018-06-24T19:57:53.129Z,14.50
2018-06-24T20:00:21.216Z,12.90
2018-06-24T20:02:49.282Z,16.73
2018-06-24T20:05:17.370Z,17.23
2018-06-24T20:07:45.466Z,15.03
2018-06-24T20:10:13.571Z,12.73
2018-06-24T20:12:41.679Z,15.43
2018-06-24T20:15:09.736Z,19.03
2018-06-24T20:17:37.875Z,15.97
2018-06-24T20:20:07.018Z,22.63
2018-06-24T20:22:35.098Z,16.90
2018-06-24T20:25:03.179Z,21.07
2018-06-24T20:27:31.232Z,16.30
2018-06-24T20:29:59.343Z,17.27
2018-06-24T20:32:27.444Z,14.83
2018-06-24T20:34:55.531Z,15.47
2018-06-24T20:37:23.630Z,21.00
2018-06-24T20:39:51.743Z,16.23
2018-06-24T20:42:19.794Z,14.37
2018-06-24T20:44:47.888Z,18.47
2018-06-24T20:47:15.969Z,14.83
2018-06-24T20:49:45.164Z,21.80
2018-06-24T20:52:13.280Z,16.80
2018-06-24T20:54:41.382Z,18.30
2018-06-24T20:57:09.482Z,16.67
2018-06-24T20:59:37.574Z,16.67
2018-06-24T21:02:05.667Z,15.63
2018-06-24T21:04:33.743Z,16.57
2018-06-24T21:07:01.875Z,19.73
2018-06-24T21:09:29.957Z,16.97
2018-06-24T21:11:58.835Z,17.03
2018-06-24T21:14:26.939Z,16.57
2018-06-24T21:16:55.003Z,16.27
2018-06-24T21:19:23.094Z,15.17
2018-06-24T21:21:53.187Z,18.47
2018-06-24T21:24:26.815Z,15.17
2018-06-24T21:26:54.919Z,15.97
2018-06-24T21:29:23.105Z,15.93
2018-06-24T21:31:51.197Z,18.60
2018-06-24T21:34:19.343Z,16.40
2018-06-24T21:36:47.551Z,17.33
2018-06-24T21:39:16.663Z,17.63
2018-06-24T21:41:44.875Z,15.65
2018-06-24T21:44:12.990Z,15.03
2018-06-24T21:46:41.067Z,14.18
2018-06-24T21:49:09.165Z,12.73
2018-06-24T21:51:37.311Z,20.07
2018-06-24T21:54:05.470Z,11.20
2018-06-24T21:56:33.553Z,13.73
2018-06-24T21:59:01.410Z,15.30
2018-06-24T22:01:29.498Z,18.60
2018-06-24T22:03:57.726Z,17.47
2018-06-24T22:06:25.806Z,22.13
2018-06-24T22:08:53.872Z,10.07
2018-06-24T22:11:22.231Z,15.47
2018-06-24T22:13:50.343Z,15.20
2018-06-24T22:16:18.465Z,16.43
2018-06-24T22:18:46.650Z,14.53
2018-06-24T22:21:14.716Z,12.07
2018-06-24T22:23:42.802Z,13.37
2018-06-24T22:26:10.903Z,11.20
2018-06-24T22:28:38.801Z,13.37
2018-06-24T22:31:06.878Z,15.30
2018-06-24T22:33:34.991Z,13.10
2018-06-24T22:36:03.061Z,16.30
2018-06-24T22:38:31.142Z,14.43
2018-06-24T22:40:59.249Z,14.70
2018-06-24T22:43:27.370Z,17.93
2018-06-24T22:45:55.458Z,16.67
2018-06-24T22:48:23.567Z,16.57
2018-06-24T22:50:51.883Z,14.10
2018-06-24T22:53:20.182Z,12.23
2018-06-24T22:55:48.250Z,13.13
2018-06-24T22:58:16.332Z,16.83
2018-06-24T23:00:44.442Z,13.17
2018-06-24T23:03:12.517Z,17.70
2018-06-24T23:05:40.598Z,24.77
2018-06-24T23:08:08.671Z,18.13
2018-06-24T23:10:36.763Z,19.67
2018-06-24T23:13:05.107Z,16.73
2018-06-24T23:15:33.181Z,18.53
2018-06-24T23:18:01.273Z,17.50
2018-06-24T23:20:29.375Z,18.70
2018-06-24T23:22:57.444Z,18.27
2018-06-24T23:25:25.602Z,15.97
2018-06-24T23:27:53.764Z,16.97
2018-06-24T23:30:21.823Z,17.43
2018-06-24T23:32:49.899Z,24.77
2018-06-24T23:35:18.006Z,19.17
2018-06-24T23:37:46.113Z,21.07
2018-06-24T23:40:14.234Z,17.30
2018-06-24T23:42:42.307Z,19.40
2018-06-24T23:45:10.390Z,19.67
2018-06-24T23:47:38.462Z,18.83
2018-06-24T23:50:06.550Z,26.50
2018-06-24T23:52:34.614Z,18.43
2018-06-24T23:55:02.699Z,22.97
2018-06-24T23:57:30.778Z,22.27
2018-06-24T23:59:58.853Z,20.87
